sensor_id;sensor_type;location;lat;lon;timestamp;P1;durP1;ratioP1;P2;durP2;ratioP2
29538;SDS011;16482;51.046;4.498;2022-10-17T00:02:09;3.78;;;2.97;;
29538;SDS011;16482;51.046;4.498;2022-10-17T00:04:37;3.88;;;3.30;;
29538;SDS011;16482;51.046;4.498;2022-10-17T00:07:05;4.75;;;3.33;;
29538;SDS011;16482;51.046;4.498;2022-10-17T00:09:41;5.10;;;3.38;;
29538;SDS011;16482;51.046;4.498;2022-10-17T00:12:10;4.72;;;3.22;;
29538;SDS011;16482;51.046;4.498;2022-10-17T00:14:39;3.90;;;3.40;;
29538;SDS011;16482;51.046;4.498;2022-10-17T00:17:10;3.42;;;2.95;;
29538;SDS011;16482;51.046;4.498;2022-10-17T00:19:43;5.20;;;3.60;;
29538;SDS011;16482;51.046;4.498;2022-10-17T00:22:11;3.60;;;3.30;;
29538;SDS011;16482;51.046;4.498;2022-10-17T00:24:39;4.07;;;3.40;;
29538;SDS011;16482;51.046;4.498;2022-10-17T00:27:05;5.68;;;3.25;;
29538;SDS011;16482;51.046;4.498;2022-10-17T00:29:34;3.63;;;3.17;;
29538;SDS011;16482;51.046;4.498;2022-10-17T00:32:09;3.55;;;3.17;;
29538;SDS011;16482;51.046;4.498;2022-10-17T00:34:34;4.07;;;3.40;;
29538;SDS011;16482;51.046;4.498;2022-10-17T00:37:00;5.90;;;3.50;;
29538;SDS011;16482;51.046;4.498;2022-10-17T00:39:26;4.78;;;3.78;;
29538;SDS011;16482;51.046;4.498;2022-10-17T00:41:52;5.00;;;3.42;;
29538;SDS011;16482;51.046;4.498;2022-10-17T00:46:56;4.35;;;3.22;;
29538;SDS011;16482;51.046;4.498;2022-10-17T00:49:24;6.55;;;3.30;;
29538;SDS011;16482;51.046;4.498;2022-10-17T00:54:54;4.10;;;3.70;;
29538;SDS011;16482;51.046;4.498;2022-10-17T00:57:30;3.80;;;3.40;;
29538;SDS011;16482;51.046;4.498;2022-10-17T00:59:58;4.50;;;3.85;;
29538;SDS011;16482;51.046;4.498;2022-10-17T01:02:27;4.60;;;3.83;;
29538;SDS011;16482;51.046;4.498;2022-10-17T01:04:52;4.18;;;3.80;;
29538;SDS011;16482;51.046;4.498;2022-10-17T01:07:20;5.53;;;3.75;;
29538;SDS011;16482;51.046;4.498;2022-10-17T01:09:47;4.10;;;3.70;;
29538;SDS011;16482;51.046;4.498;2022-10-17T01:22:55;4.22;;;3.47;;
29538;SDS011;16482;51.046;4.498;2022-10-17T01:34:04;5.15;;;3.78;;
29538;SDS011;16482;51.046;4.498;2022-10-17T01:39:10;4.40;;;3.92;;
29538;SDS011;16482;51.046;4.498;2022-10-17T01:41:42;4.15;;;3.60;;
29538;SDS011;16482;51.046;4.498;2022-10-17T01:44:31;4.53;;;3.97;;
29538;SDS011;16482;51.046;4.498;2022-10-17T01:47:14;4.07;;;3.67;;
29538;SDS011;16482;51.046;4.498;2022-10-17T01:49:44;4.28;;;3.88;;
29538;SDS011;16482;51.046;4.498;2022-10-17T01:52:14;4.40;;;3.67;;
29538;SDS011;16482;51.046;4.498;2022-10-17T01:55:16;4.13;;;3.72;;
29538;SDS011;16482;51.046;4.498;2022-10-17T01:57:48;4.95;;;4.15;;
29538;SDS011;16482;51.046;4.498;2022-10-17T02:00:20;4.50;;;4.10;;
29538;SDS011;16482;51.046;4.498;2022-10-17T02:02:48;4.35;;;3.70;;
29538;SDS011;16482;51.046;4.498;2022-10-17T02:05:19;4.88;;;3.97;;
29538;SDS011;16482;51.046;4.498;2022-10-17T02:07:49;5.00;;;3.85;;
29538;SDS011;16482;51.046;4.498;2022-10-17T02:10:17;4.72;;;3.92;;
29538;SDS011;16482;51.046;4.498;2022-10-17T02:12:58;4.78;;;4.28;;
29538;SDS011;16482;51.046;4.498;2022-10-17T02:15:51;4.05;;;3.63;;
29538;SDS011;16482;51.046;4.498;2022-10-17T02:21:10;4.47;;;4.05;;
29538;SDS011;16482;51.046;4.498;2022-10-17T02:24:13;4.07;;;3.67;;
29538;SDS011;16482;51.046;4.498;2022-10-17T02:26:52;5.93;;;4.57;;
29538;SDS011;16482;51.046;4.498;2022-10-17T02:29:29;4.35;;;3.83;;
29538;SDS011;16482;51.046;4.498;2022-10-17T02:32:09;4.65;;;3.92;;
29538;SDS011;16482;51.046;4.498;2022-10-17T02:34:49;5.38;;;4.13;;
29538;SDS011;16482;51.046;4.498;2022-10-17T02:37:18;4.85;;;3.80;;
29538;SDS011;16482;51.046;4.498;2022-10-17T02:39:49;5.55;;;4.60;;
29538;SDS011;16482;51.046;4.498;2022-10-17T02:42:15;4.65;;;4.18;;
29538;SDS011;16482;51.046;4.498;2022-10-17T02:44:43;5.57;;;4.45;;
29538;SDS011;16482;51.046;4.498;2022-10-17T02:49:59;5.30;;;4.32;;
29538;SDS011;16482;51.046;4.498;2022-10-17T02:52:27;4.82;;;4.32;;
29538;SDS011;16482;51.046;4.498;2022-10-17T02:55:18;4.93;;;4.40;;
29538;SDS011;16482;51.046;4.498;2022-10-17T02:57:46;5.72;;;4.30;;
29538;SDS011;16482;51.046;4.498;2022-10-17T03:00:18;4.57;;;4.15;;
29538;SDS011;16482;51.046;4.498;2022-10-17T03:02:47;4.85;;;4.40;;
29538;SDS011;16482;51.046;4.498;2022-10-17T03:05:18;4.75;;;4.25;;
29538;SDS011;16482;51.046;4.498;2022-10-17T03:07:46;5.57;;;4.70;;
29538;SDS011;16482;51.046;4.498;2022-10-17T03:10:12;6.18;;;4.25;;
29538;SDS011;16482;51.046;4.498;2022-10-17T03:12:38;4.93;;;4.32;;
29538;SDS011;16482;51.046;4.498;2022-10-17T03:15:04;5.75;;;4.65;;
29538;SDS011;16482;51.046;4.498;2022-10-17T03:17:30;5.47;;;4.28;;
29538;SDS011;16482;51.046;4.498;2022-10-17T03:19:56;5.72;;;4.60;;
29538;SDS011;16482;51.046;4.498;2022-10-17T03:22:22;5.15;;;4.45;;
29538;SDS011;16482;51.046;4.498;2022-10-17T03:24:48;5.80;;;4.32;;
29538;SDS011;16482;51.046;4.498;2022-10-17T03:27:14;4.43;;;4.03;;
29538;SDS011;16482;51.046;4.498;2022-10-17T03:29:40;5.13;;;4.50;;
29538;SDS011;16482;51.046;4.498;2022-10-17T03:32:06;7.22;;;4.90;;
29538;SDS011;16482;51.046;4.498;2022-10-17T03:34:39;6.38;;;4.68;;
29538;SDS011;16482;51.046;4.498;2022-10-17T03:37:05;6.22;;;4.85;;
29538;SDS011;16482;51.046;4.498;2022-10-17T03:39:40;5.03;;;4.53;;
29538;SDS011;16482;51.046;4.498;2022-10-17T03:42:06;5.50;;;5.00;;
29538;SDS011;16482;51.046;4.498;2022-10-17T03:44:32;6.10;;;4.93;;
29538;SDS011;16482;51.046;4.498;2022-10-17T03:46:57;5.90;;;5.25;;
29538;SDS011;16482;51.046;4.498;2022-10-17T03:49:26;6.00;;;4.60;;
29538;SDS011;16482;51.046;4.498;2022-10-17T03:51:52;5.45;;;4.85;;
29538;SDS011;16482;51.046;4.498;2022-10-17T03:54:17;6.10;;;4.80;;
29538;SDS011;16482;51.046;4.498;2022-10-17T03:56:43;7.38;;;5.00;;
29538;SDS011;16482;51.046;4.498;2022-10-17T03:59:13;5.30;;;4.80;;
29538;SDS011;16482;51.046;4.498;2022-10-17T04:01:40;5.80;;;5.05;;
29538;SDS011;16482;51.046;4.498;2022-10-17T04:04:06;5.40;;;4.90;;
29538;SDS011;16482;51.046;4.498;2022-10-17T04:06:32;5.20;;;4.60;;
29538;SDS011;16482;51.046;4.498;2022-10-17T04:08:58;5.25;;;4.47;;
29538;SDS011;16482;51.046;4.498;2022-10-17T04:11:24;5.10;;;4.57;;
29538;SDS011;16482;51.046;4.498;2022-10-17T04:13:54;6.88;;;4.93;;
29538;SDS011;16482;51.046;4.498;2022-10-17T04:16:21;5.40;;;4.90;;
29538;SDS011;16482;51.046;4.498;2022-10-17T04:18:51;7.45;;;5.38;;
29538;SDS011;16482;51.046;4.498;2022-10-17T04:21:22;5.72;;;4.85;;
29538;SDS011;16482;51.046;4.498;2022-10-17T04:23:53;5.70;;;5.10;;
29538;SDS011;16482;51.046;4.498;2022-10-17T04:26:19;6.43;;;4.90;;
29538;SDS011;16482;51.046;4.498;2022-10-17T04:28:49;5.28;;;4.78;;
29538;SDS011;16482;51.046;4.498;2022-10-17T04:31:15;5.30;;;4.80;;
29538;SDS011;16482;51.046;4.498;2022-10-17T04:33:50;5.15;;;4.65;;
29538;SDS011;16482;51.046;4.498;2022-10-17T04:36:17;5.60;;;5.00;;
29538;SDS011;16482;51.046;4.498;2022-10-17T04:38:49;5.72;;;5.13;;
29538;SDS011;16482;51.046;4.498;2022-10-17T04:41:16;7.07;;;5.47;;
29538;SDS011;16482;51.046;4.498;2022-10-17T04:43:45;5.78;;;5.18;;
29538;SDS011;16482;51.046;4.498;2022-10-17T04:46:20;5.53;;;4.93;;
29538;SDS011;16482;51.046;4.498;2022-10-17T04:48:46;5.55;;;5.03;;
29538;SDS011;16482;51.046;4.498;2022-10-17T04:51:15;6.72;;;5.35;;
29538;SDS011;16482;51.046;4.498;2022-10-17T04:53:44;8.23;;;5.60;;
29538;SDS011;16482;51.046;4.498;2022-10-17T04:56:21;6.07;;;5.43;;
29538;SDS011;16482;51.046;4.498;2022-10-17T04:58:50;6.78;;;5.22;;
29538;SDS011;16482;51.046;4.498;2022-10-17T05:01:20;5.47;;;4.97;;
29538;SDS011;16482;51.046;4.498;2022-10-17T05:03:47;6.72;;;5.38;;
29538;SDS011;16482;51.046;4.498;2022-10-17T05:06:18;6.97;;;5.18;;
29538;SDS011;16482;51.046;4.498;2022-10-17T05:08:46;5.70;;;5.20;;
29538;SDS011;16482;51.046;4.498;2022-10-17T05:11:20;6.35;;;5.68;;
29538;SDS011;16482;51.046;4.498;2022-10-17T05:13:51;7.25;;;5.60;;
29538;SDS011;16482;51.046;4.498;2022-10-17T05:16:20;5.95;;;5.35;;
29538;SDS011;16482;51.046;4.498;2022-10-17T05:18:47;5.95;;;5.32;;
29538;SDS011;16482;51.046;4.498;2022-10-17T05:21:19;6.25;;;5.22;;
29538;SDS011;16482;51.046;4.498;2022-10-17T05:23:47;6.53;;;5.07;;
29538;SDS011;16482;51.046;4.498;2022-10-17T05:26:15;6.75;;;6.05;;
29538;SDS011;16482;51.046;4.498;2022-10-17T05:28:44;6.40;;;5.38;;
29538;SDS011;16482;51.046;4.498;2022-10-17T05:31:10;8.60;;;6.18;;
29538;SDS011;16482;51.046;4.498;2022-10-17T05:33:36;5.90;;;5.30;;
29538;SDS011;16482;51.046;4.498;2022-10-17T05:36:03;6.10;;;5.50;;
29538;SDS011;16482;51.046;4.498;2022-10-17T05:38:30;6.32;;;5.25;;
29538;SDS011;16482;51.046;4.498;2022-10-17T05:40:59;7.78;;;5.82;;
29538;SDS011;16482;51.046;4.498;2022-10-17T05:43:26;6.88;;;5.95;;
29538;SDS011;16482;51.046;4.498;2022-10-17T05:45:52;6.70;;;5.90;;
29538;SDS011;16482;51.046;4.498;2022-10-17T05:48:18;6.22;;;5.63;;
29538;SDS011;16482;51.046;4.498;2022-10-17T05:50:44;7.60;;;5.60;;
29538;SDS011;16482;51.046;4.498;2022-10-17T05:53:10;8.57;;;5.72;;
29538;SDS011;16482;51.046;4.498;2022-10-17T05:55:36;6.90;;;6.05;;
29538;SDS011;16482;51.046;4.498;2022-10-17T05:58:02;7.35;;;5.80;;
29538;SDS011;16482;51.046;4.498;2022-10-17T06:00:30;7.43;;;6.00;;
29538;SDS011;16482;51.046;4.498;2022-10-17T06:02:56;7.38;;;6.20;;
29538;SDS011;16482;51.046;4.498;2022-10-17T06:05:24;6.32;;;5.57;;
29538;SDS011;16482;51.046;4.498;2022-10-17T06:07:50;6.57;;;5.88;;
29538;SDS011;16482;51.046;4.498;2022-10-17T06:10:19;7.53;;;6.25;;
29538;SDS011;16482;51.046;4.498;2022-10-17T06:12:44;7.00;;;6.30;;
29538;SDS011;16482;51.046;4.498;2022-10-17T06:15:11;7.28;;;6.00;;
29538;SDS011;16482;51.046;4.498;2022-10-17T06:17:37;7.25;;;6.05;;
29538;SDS011;16482;51.046;4.498;2022-10-17T06:20:03;6.60;;;5.85;;
29538;SDS011;16482;51.046;4.498;2022-10-17T06:22:29;6.35;;;5.57;;
29538;SDS011;16482;51.046;4.498;2022-10-17T06:24:55;7.07;;;6.38;;
29538;SDS011;16482;51.046;4.498;2022-10-17T06:27:21;7.10;;;6.00;;
29538;SDS011;16482;51.046;4.498;2022-10-17T06:29:47;6.85;;;5.95;;
29538;SDS011;16482;51.046;4.498;2022-10-17T06:32:15;7.63;;;6.30;;
29538;SDS011;16482;51.046;4.498;2022-10-17T06:34:41;10.07;;;6.57;;
29538;SDS011;16482;51.046;4.498;2022-10-17T06:37:09;6.68;;;6.00;;
29538;SDS011;16482;51.046;4.498;2022-10-17T06:39:35;6.82;;;5.95;;
29538;SDS011;16482;51.046;4.498;2022-10-17T06:42:02;8.88;;;6.55;;
29538;SDS011;16482;51.046;4.498;2022-10-17T06:44:28;6.70;;;6.00;;
29538;SDS011;16482;51.046;4.498;2022-10-17T06:46:56;8.15;;;6.10;;
29538;SDS011;16482;51.046;4.498;2022-10-17T06:49:23;7.50;;;5.88;;
29538;SDS011;16482;51.046;4.498;2022-10-17T06:51:49;7.05;;;6.18;;
29538;SDS011;16482;51.046;4.498;2022-10-17T06:54:14;7.70;;;6.82;;
29538;SDS011;16482;51.046;4.498;2022-10-17T06:56:40;7.88;;;6.03;;
29538;SDS011;16482;51.046;4.498;2022-10-17T06:59:07;6.95;;;5.90;;
29538;SDS011;16482;51.046;4.498;2022-10-17T07:01:33;8.18;;;6.00;;
29538;SDS011;16482;51.046;4.498;2022-10-17T07:03:59;8.27;;;6.30;;
29538;SDS011;16482;51.046;4.498;2022-10-17T07:06:25;7.55;;;5.85;;
29538;SDS011;16482;51.046;4.498;2022-10-17T07:08:51;7.35;;;6.18;;
29538;SDS011;16482;51.046;4.498;2022-10-17T07:11:20;8.75;;;6.20;;
29538;SDS011;16482;51.046;4.498;2022-10-17T07:13:46;7.57;;;6.10;;
29538;SDS011;16482;51.046;4.498;2022-10-17T07:16:15;7.53;;;6.15;;
29538;SDS011;16482;51.046;4.498;2022-10-17T07:18:49;7.07;;;6.28;;
29538;SDS011;16482;51.046;4.498;2022-10-17T07:21:15;8.82;;;6.57;;
29538;SDS011;16482;51.046;4.498;2022-10-17T07:23:41;7.45;;;6.57;;
29538;SDS011;16482;51.046;4.498;2022-10-17T07:26:08;8.13;;;6.20;;
29538;SDS011;16482;51.046;4.498;2022-10-17T07:28:36;7.88;;;6.80;;
29538;SDS011;16482;51.046;4.498;2022-10-17T07:31:04;10.45;;;6.70;;
29538;SDS011;16482;51.046;4.498;2022-10-17T07:33:31;6.75;;;6.05;;
29538;SDS011;16482;51.046;4.498;2022-10-17T07:36:00;8.13;;;6.38;;
29538;SDS011;16482;51.046;4.498;2022-10-17T07:38:27;7.25;;;6.22;;
29538;SDS011;16482;51.046;4.498;2022-10-17T07:40:54;7.25;;;6.32;;
29538;SDS011;16482;51.046;4.498;2022-10-17T07:43:25;7.18;;;6.13;;
29538;SDS011;16482;51.046;4.498;2022-10-17T07:45:51;8.23;;;6.03;;
29538;SDS011;16482;51.046;4.498;2022-10-17T07:48:18;7.28;;;6.00;;
29538;SDS011;16482;51.046;4.498;2022-10-17T07:50:44;7.80;;;6.20;;
29538;SDS011;16482;51.046;4.498;2022-10-17T07:53:10;7.47;;;6.35;;
29538;SDS011;16482;51.046;4.498;2022-10-17T07:55:37;7.95;;;6.82;;
29538;SDS011;16482;51.046;4.498;2022-10-17T07:58:03;7.90;;;6.32;;
29538;SDS011;16482;51.046;4.498;2022-10-17T08:00:32;7.65;;;6.00;;
29538;SDS011;16482;51.046;4.498;2022-10-17T08:02:58;8.05;;;6.30;;
29538;SDS011;16482;51.046;4.498;2022-10-17T08:05:27;8.50;;;6.55;;
29538;SDS011;16482;51.046;4.498;2022-10-17T08:08:03;6.72;;;6.03;;
29538;SDS011;16482;51.046;4.498;2022-10-17T08:10:36;6.75;;;5.90;;
29538;SDS011;16482;51.046;4.498;2022-10-17T08:13:02;7.22;;;6.00;;
29538;SDS011;16482;51.046;4.498;2022-10-17T08:15:30;8.65;;;6.25;;
29538;SDS011;16482;51.046;4.498;2022-10-17T08:17:57;6.40;;;5.70;;
29538;SDS011;16482;51.046;4.498;2022-10-17T08:20:30;6.75;;;6.03;;
29538;SDS011;16482;51.046;4.498;2022-10-17T08:23:01;6.47;;;5.72;;
29538;SDS011;16482;51.046;4.498;2022-10-17T08:25:30;6.15;;;5.55;;
29538;SDS011;16482;51.046;4.498;2022-10-17T08:27:58;7.65;;;6.10;;
29538;SDS011;16482;51.046;4.498;2022-10-17T08:30:24;7.90;;;6.40;;
29538;SDS011;16482;51.046;4.498;2022-10-17T08:33:00;8.52;;;6.13;;
29538;SDS011;16482;51.046;4.498;2022-10-17T08:35:33;7.57;;;6.40;;
29538;SDS011;16482;51.046;4.498;2022-10-17T08:38:01;6.97;;;6.18;;
29538;SDS011;16482;51.046;4.498;2022-10-17T08:40:30;8.23;;;6.07;;
29538;SDS011;16482;51.046;4.498;2022-10-17T08:45:58;6.97;;;5.80;;
29538;SDS011;16482;51.046;4.498;2022-10-17T08:48:27;7.20;;;6.03;;
29538;SDS011;16482;51.046;4.498;2022-10-17T08:51:02;6.72;;;6.05;;
29538;SDS011;16482;51.046;4.498;2022-10-17T08:56:26;6.53;;;5.75;;
29538;SDS011;16482;51.046;4.498;2022-10-17T08:58:58;6.55;;;5.90;;
29538;SDS011;16482;51.046;4.498;2022-10-17T09:06:38;8.18;;;6.57;;
29538;SDS011;16482;51.046;4.498;2022-10-17T09:09:20;8.38;;;6.60;;
29538;SDS011;16482;51.046;4.498;2022-10-17T09:20:49;9.18;;;6.75;;
29538;SDS011;16482;51.046;4.498;2022-10-17T09:23:18;8.88;;;7.38;;
29538;SDS011;16482;51.046;4.498;2022-10-17T09:26:08;9.10;;;6.82;;
29538;SDS011;16482;51.046;4.498;2022-10-17T09:28:41;8.40;;;6.80;;
29538;SDS011;16482;51.046;4.498;2022-10-17T09:34:15;8.82;;;6.97;;
29538;SDS011;16482;51.046;4.498;2022-10-17T09:36:41;7.15;;;6.30;;
29538;SDS011;16482;51.046;4.498;2022-10-17T09:39:12;8.70;;;6.60;;
29538;SDS011;16482;51.046;4.498;2022-10-17T09:41:43;7.72;;;5.93;;
29538;SDS011;16482;51.046;4.498;2022-10-17T09:46:48;9.07;;;6.60;;
29538;SDS011;16482;51.046;4.498;2022-10-17T09:49:46;6.90;;;6.20;;
29538;SDS011;16482;51.046;4.498;2022-10-17T09:52:14;8.80;;;6.13;;
29538;SDS011;16482;51.046;4.498;2022-10-17T09:54:42;7.70;;;6.43;;
29538;SDS011;16482;51.046;4.498;2022-10-17T09:57:14;8.35;;;6.35;;
29538;SDS011;16482;51.046;4.498;2022-10-17T09:59:45;8.68;;;6.72;;
29538;SDS011;16482;51.046;4.498;2022-10-17T10:04:51;8.63;;;6.70;;
29538;SDS011;16482;51.046;4.498;2022-10-17T10:07:21;7.72;;;6.85;;
29538;SDS011;16482;51.046;4.498;2022-10-17T10:09:48;8.65;;;6.35;;
29538;SDS011;16482;51.046;4.498;2022-10-17T10:12:17;7.95;;;7.15;;
29538;SDS011;16482;51.046;4.498;2022-10-17T10:14:42;8.85;;;6.72;;
29538;SDS011;16482;51.046;4.498;2022-10-17T10:17:33;8.65;;;6.43;;
29538;SDS011;16482;51.046;4.498;2022-10-17T10:19:59;6.65;;;5.93;;
29538;SDS011;16482;51.046;4.498;2022-10-17T10:22:25;7.60;;;6.70;;
29538;SDS011;16482;51.046;4.498;2022-10-17T10:25:11;8.60;;;6.72;;
29538;SDS011;16482;51.046;4.498;2022-10-17T10:27:39;8.65;;;6.10;;
29538;SDS011;16482;51.046;4.498;2022-10-17T10:30:15;7.80;;;6.88;;
29538;SDS011;16482;51.046;4.498;2022-10-17T10:32:48;7.63;;;6.53;;
29538;SDS011;16482;51.046;4.498;2022-10-17T10:35:21;7.80;;;6.72;;
29538;SDS011;16482;51.046;4.498;2022-10-17T10:37:51;11.57;;;7.03;;
29538;SDS011;16482;51.046;4.498;2022-10-17T10:40:24;9.70;;;6.65;;
29538;SDS011;16482;51.046;4.498;2022-10-17T10:42:56;8.40;;;6.95;;
29538;SDS011;16482;51.046;4.498;2022-10-17T10:45:24;6.72;;;6.03;;
29538;SDS011;16482;51.046;4.498;2022-10-17T10:48:01;7.07;;;6.38;;
29538;SDS011;16482;51.046;4.498;2022-10-17T10:56:22;7.65;;;6.85;;
29538;SDS011;16482;51.046;4.498;2022-10-17T11:01:11;8.23;;;6.30;;
29538;SDS011;16482;51.046;4.498;2022-10-17T11:06:39;7.63;;;6.78;;
29538;SDS011;16482;51.046;4.498;2022-10-17T11:11:58;8.27;;;6.32;;
29538;SDS011;16482;51.046;4.498;2022-10-17T11:17:34;9.05;;;6.70;;
29538;SDS011;16482;51.046;4.498;2022-10-17T11:28:00;9.05;;;7.05;;
29538;SDS011;16482;51.046;4.498;2022-10-17T11:30:36;8.27;;;7.40;;
29538;SDS011;16482;51.046;4.498;2022-10-17T11:33:25;9.10;;;6.63;;
29538;SDS011;16482;51.046;4.498;2022-10-17T11:36:27;9.20;;;7.53;;
29538;SDS011;16482;51.046;4.498;2022-10-17T11:39:05;9.95;;;7.63;;
29538;SDS011;16482;51.046;4.498;2022-10-17T11:41:43;8.35;;;7.35;;
29538;SDS011;16482;51.046;4.498;2022-10-17T11:44:24;8.35;;;7.13;;
29538;SDS011;16482;51.046;4.498;2022-10-17T11:50:05;8.80;;;7.25;;
29538;SDS011;16482;51.046;4.498;2022-10-17T11:52:48;9.48;;;7.38;;
29538;SDS011;16482;51.046;4.498;2022-10-17T11:55:27;7.35;;;6.63;;
29538;SDS011;16482;51.046;4.498;2022-10-17T12:01:51;8.95;;;7.40;;
29538;SDS011;16482;51.046;4.498;2022-10-17T12:12:23;9.25;;;7.28;;
29538;SDS011;16482;51.046;4.498;2022-10-17T12:14:51;8.30;;;6.55;;
29538;SDS011;16482;51.046;4.498;2022-10-17T12:23:03;8.35;;;6.78;;
29538;SDS011;16482;51.046;4.498;2022-10-17T12:25:35;8.15;;;7.07;;
29538;SDS011;16482;51.046;4.498;2022-10-17T12:28:27;8.27;;;7.30;;
29538;SDS011;16482;51.046;4.498;2022-10-17T12:33:30;8.07;;;6.97;;
29538;SDS011;16482;51.046;4.498;2022-10-17T12:38:52;8.65;;;6.93;;
29538;SDS011;16482;51.046;4.498;2022-10-17T12:57:29;11.30;;;7.65;;
29538;SDS011;16482;51.046;4.498;2022-10-17T12:59:56;8.65;;;7.40;;
29538;SDS011;16482;51.046;4.498;2022-10-17T13:02:25;9.00;;;7.25;;
29538;SDS011;16482;51.046;4.498;2022-10-17T13:04:56;9.55;;;7.38;;
29538;SDS011;16482;51.046;4.498;2022-10-17T13:07:32;8.40;;;7.28;;
29538;SDS011;16482;51.046;4.498;2022-10-17T13:10:00;9.02;;;7.28;;
29538;SDS011;16482;51.046;4.498;2022-10-17T13:12:29;8.18;;;7.38;;
29538;SDS011;16482;51.046;4.498;2022-10-17T13:14:59;8.82;;;7.50;;
29538;SDS011;16482;51.046;4.498;2022-10-17T13:17:28;7.78;;;6.95;;
29538;SDS011;16482;51.046;4.498;2022-10-17T13:19:55;9.18;;;8.20;;
29538;SDS011;16482;51.046;4.498;2022-10-17T13:22:23;10.32;;;7.50;;
29538;SDS011;16482;51.046;4.498;2022-10-17T13:24:51;8.32;;;7.20;;
29538;SDS011;16482;51.046;4.498;2022-10-17T13:27:30;8.40;;;6.93;;
29538;SDS011;16482;51.046;4.498;2022-10-17T13:29:58;7.60;;;6.80;;
29538;SDS011;16482;51.046;4.498;2022-10-17T13:32:44;9.40;;;7.70;;
29538;SDS011;16482;51.046;4.498;2022-10-17T13:35:11;8.75;;;7.85;;
29538;SDS011;16482;51.046;4.498;2022-10-17T13:37:40;9.88;;;7.20;;
29538;SDS011;16482;51.046;4.498;2022-10-17T13:40:14;8.93;;;7.68;;
29538;SDS011;16482;51.046;4.498;2022-10-17T13:42:41;9.25;;;7.65;;
29538;SDS011;16482;51.046;4.498;2022-10-17T13:45:50;9.63;;;7.90;;
29538;SDS011;16482;51.046;4.498;2022-10-17T13:48:04;9.48;;;7.90;;
29538;SDS011;16482;51.046;4.498;2022-10-17T13:50:40;8.82;;;7.50;;
29538;SDS011;16482;51.046;4.498;2022-10-17T13:53:29;8.60;;;6.95;;
29538;SDS011;16482;51.046;4.498;2022-10-17T13:56:02;7.68;;;6.80;;
29538;SDS011;16482;51.046;4.498;2022-10-17T13:58:38;9.30;;;7.75;;
29538;SDS011;16482;51.046;4.498;2022-10-17T14:01:09;8.32;;;7.22;;
29538;SDS011;16482;51.046;4.498;2022-10-17T14:03:36;8.60;;;7.45;;
29538;SDS011;16482;51.046;4.498;2022-10-17T14:06:11;8.90;;;7.13;;
29538;SDS011;16482;51.046;4.498;2022-10-17T14:08:59;8.48;;;7.18;;
29538;SDS011;16482;51.046;4.498;2022-10-17T14:14:05;11.07;;;8.10;;
29538;SDS011;16482;51.046;4.498;2022-10-17T14:16:42;8.27;;;7.40;;
29538;SDS011;16482;51.046;4.498;2022-10-17T14:19:19;9.50;;;7.53;;
29538;SDS011;16482;51.046;4.498;2022-10-17T14:21:53;8.00;;;7.20;;
29538;SDS011;16482;51.046;4.498;2022-10-17T14:26:50;7.68;;;6.88;;
29538;SDS011;16482;51.046;4.498;2022-10-17T14:29:25;9.02;;;7.47;;
29538;SDS011;16482;51.046;4.498;2022-10-17T14:31:57;8.32;;;7.45;;
29538;SDS011;16482;51.046;4.498;2022-10-17T14:34:39;9.00;;;7.70;;
29538;SDS011;16482;51.046;4.498;2022-10-17T14:37:41;9.13;;;7.57;;
29538;SDS011;16482;51.046;4.498;2022-10-17T14:40:02;8.07;;;7.18;;
29538;SDS011;16482;51.046;4.498;2022-10-17T14:42:29;8.50;;;7.53;;
29538;SDS011;16482;51.046;4.498;2022-10-17T14:45:04;8.98;;;7.95;;
29538;SDS011;16482;51.046;4.498;2022-10-17T14:47:32;8.68;;;7.55;;
29538;SDS011;16482;51.046;4.498;2022-10-17T14:50:04;8.60;;;7.78;;
29538;SDS011;16482;51.046;4.498;2022-10-17T14:52:31;9.55;;;7.82;;
29538;SDS011;16482;51.046;4.498;2022-10-17T14:54:57;8.73;;;7.75;;
29538;SDS011;16482;51.046;4.498;2022-10-17T14:57:44;7.75;;;6.95;;
29538;SDS011;16482;51.046;4.498;2022-10-17T15:00:17;8.45;;;7.50;;
29538;SDS011;16482;51.046;4.498;2022-10-17T15:02:44;9.55;;;7.57;;
29538;SDS011;16482;51.046;4.498;2022-10-17T15:05:10;8.60;;;7.15;;
29538;SDS011;16482;51.046;4.498;2022-10-17T15:07:37;8.18;;;7.28;;
29538;SDS011;16482;51.046;4.498;2022-10-17T15:10:03;8.05;;;7.18;;
29538;SDS011;16482;51.046;4.498;2022-10-17T15:12:29;8.60;;;7.53;;
29538;SDS011;16482;51.046;4.498;2022-10-17T15:14:56;8.13;;;7.28;;
29538;SDS011;16482;51.046;4.498;2022-10-17T15:17:24;8.30;;;7.28;;
29538;SDS011;16482;51.046;4.498;2022-10-17T15:19:53;8.88;;;7.45;;
29538;SDS011;16482;51.046;4.498;2022-10-17T15:22:20;8.43;;;7.40;;
29538;SDS011;16482;51.046;4.498;2022-10-17T15:24:46;9.02;;;7.18;;
29538;SDS011;16482;51.046;4.498;2022-10-17T15:27:15;7.53;;;6.82;;
29538;SDS011;16482;51.046;4.498;2022-10-17T15:29:46;8.30;;;7.22;;
29538;SDS011;16482;51.046;4.498;2022-10-17T15:32:14;9.55;;;7.50;;
29538;SDS011;16482;51.046;4.498;2022-10-17T15:34:43;8.38;;;7.57;;
29538;SDS011;16482;51.046;4.498;2022-10-17T15:37:22;8.02;;;7.22;;
29538;SDS011;16482;51.046;4.498;2022-10-17T15:39:50;9.77;;;7.28;;
29538;SDS011;16482;51.046;4.498;2022-10-17T15:42:19;9.18;;;7.22;;
29538;SDS011;16482;51.046;4.498;2022-10-17T15:44:46;8.30;;;7.50;;
29538;SDS011;16482;51.046;4.498;2022-10-17T15:47:18;8.95;;;7.97;;
29538;SDS011;16482;51.046;4.498;2022-10-17T15:49:49;9.27;;;7.55;;
29538;SDS011;16482;51.046;4.498;2022-10-17T15:52:15;9.18;;;7.47;;
29538;SDS011;16482;51.046;4.498;2022-10-17T15:54:43;7.40;;;6.70;;
29538;SDS011;16482;51.046;4.498;2022-10-17T15:57:17;9.20;;;7.32;;
29538;SDS011;16482;51.046;4.498;2022-10-17T15:59:53;8.35;;;7.28;;
29538;SDS011;16482;51.046;4.498;2022-10-17T16:02:22;8.00;;;7.20;;
29538;SDS011;16482;51.046;4.498;2022-10-17T16:04:48;9.20;;;7.15;;
29538;SDS011;16482;51.046;4.498;2022-10-17T16:07:16;9.35;;;7.22;;
29538;SDS011;16482;51.046;4.498;2022-10-17T16:09:44;7.72;;;6.93;;
29538;SDS011;16482;51.046;4.498;2022-10-17T16:12:11;8.45;;;6.72;;
29538;SDS011;16482;51.046;4.498;2022-10-17T16:14:44;8.43;;;6.78;;
29538;SDS011;16482;51.046;4.498;2022-10-17T16:17:13;8.30;;;6.90;;
29538;SDS011;16482;51.046;4.498;2022-10-17T16:19:42;9.85;;;7.10;;
29538;SDS011;16482;51.046;4.498;2022-10-17T16:22:23;8.48;;;6.80;;
29538;SDS011;16482;51.046;4.498;2022-10-17T16:25:00;7.57;;;6.47;;
29538;SDS011;16482;51.046;4.498;2022-10-17T16:27:33;8.05;;;7.15;;
29538;SDS011;16482;51.046;4.498;2022-10-17T16:30:03;9.48;;;6.90;;
29538;SDS011;16482;51.046;4.498;2022-10-17T16:32:30;8.05;;;6.90;;
29538;SDS011;16482;51.046;4.498;2022-10-17T16:34:56;8.52;;;6.72;;
29538;SDS011;16482;51.046;4.498;2022-10-17T16:37:24;7.40;;;6.70;;
29538;SDS011;16482;51.046;4.498;2022-10-17T16:39:50;8.55;;;6.82;;
29538;SDS011;16482;51.046;4.498;2022-10-17T16:42:18;8.43;;;6.47;;
29538;SDS011;16482;51.046;4.498;2022-10-17T16:44:45;7.70;;;6.47;;
29538;SDS011;16482;51.046;4.498;2022-10-17T16:47:14;7.38;;;6.43;;
29538;SDS011;16482;51.046;4.498;2022-10-17T16:49:44;7.80;;;7.05;;
29538;SDS011;16482;51.046;4.498;2022-10-17T16:52:09;7.40;;;6.60;;
29538;SDS011;16482;51.046;4.498;2022-10-17T16:54:38;7.82;;;6.93;;
29538;SDS011;16482;51.046;4.498;2022-10-17T16:57:06;7.78;;;6.40;;
29538;SDS011;16482;51.046;4.498;2022-10-17T16:59:43;7.13;;;6.43;;
29538;SDS011;16482;51.046;4.498;2022-10-17T17:02:14;7.70;;;6.75;;
29538;SDS011;16482;51.046;4.498;2022-10-17T17:04:43;7.88;;;6.88;;
29538;SDS011;16482;51.046;4.498;2022-10-17T17:07:11;7.80;;;6.47;;
29538;SDS011;16482;51.046;4.498;2022-10-17T17:09:37;7.53;;;6.72;;
29538;SDS011;16482;51.046;4.498;2022-10-17T17:12:13;8.02;;;6.75;;
29538;SDS011;16482;51.046;4.498;2022-10-17T17:14:38;7.45;;;6.65;;
29538;SDS011;16482;51.046;4.498;2022-10-17T17:17:15;7.63;;;6.78;;
29538;SDS011;16482;51.046;4.498;2022-10-17T17:19:43;8.85;;;6.40;;
29538;SDS011;16482;51.046;4.498;2022-10-17T17:22:09;8.20;;;6.97;;